This is the latest recevied weather packets stored in our database for station/object KB3MVG-13. If no packets are shown the sender has not sent any weather packets the latest 10 day(s).
| Time | Temp. | Humidity | Pressure | Rain* | Wind** | Luminosity | Snow |
|---|---|---|---|---|---|---|---|
| 1777957235 | 7.78° C | 89% | 1016 hPa | 0.25 mm | - | 0 W/m² | - |
| 1777956035 | 7.78° C | 88% | 1015.7 hPa | 1.02 mm | - | 0 W/m² | - |
| 1777947617 | 10.56° C | 77% | 1013.7 hPa | 0 mm | - | 0 W/m² | - |
| 1777943417 | 11.11° C | 73% | 1012.6 hPa | 0.76 mm | - | 33 W/m² | - |
| 1777940417 | 11.67° C | 58% | 1012.8 hPa | 0.25 mm | - | 19 W/m² | - |
| 1777936816 | 14.44° C | 39% | 1011.2 hPa | 0 mm | - | 102 W/m² | - |
| 1777926016 | 17.78° C | 26% | 1012.1 hPa | 0 mm | - | 958 W/m² | - |
| 1777924216 | 16.67° C | 27% | 1011.8 hPa | 0 mm | - | 295 W/m² | - |
| 1777920016 | 17.78° C | 28% | 1013 hPa | 0 mm | - | 46 W/m² | - |
| 1777917616 | 20° C | 16% | 1013.6 hPa | 0 mm | - | 139 W/m² | - |
| 1777916416 | 20.56° C | 16% | 1013.8 hPa | 0 mm | - | 328 W/m² | - |
| 1777912816 | 19.44° C | 18% | 1014.7 hPa | 0 mm | - | 636 W/m² | - |
| 1777912216 | 20° C | 18% | 1014.7 hPa | 0 mm | - | 691 W/m² | - |
| 1777911616 | 20° C | 17% | 1014.9 hPa | 0 mm | - | 342 W/m² | - |
| 1777903816 | 15° C | 21% | 1014.3 hPa | 0 mm | - | 218 W/m² | - |
| 1777899616 | 13.33° C | 21% | 1014 hPa | 0 mm | - | 44 W/m² | - |
| 1777899016 | 13.33° C | 21% | 1013.8 hPa | 0 mm | - | 33 W/m² | - |
| 1777896616 | 13.33° C | 21% | 1013.6 hPa | 0 mm | - | 5 W/m² | - |
| 1777893016 | 12.22° C | 24% | 1014.5 hPa | 0 mm | - | 0 W/m² | - |
| 1777891216 | 11.67° C | 25% | 1014.2 hPa | 0 mm | - | 0 W/m² | - |
| 1777889416 | 11.11° C | 25% | 1014.4 hPa | 0 mm | - | 0 W/m² | - |
| 1777888216 | 11.67° C | 25% | 1014.9 hPa | 0 mm | - | 0 W/m² | - |
| 1777885816 | 11.11° C | 27% | 1015.1 hPa | 0 mm | - | 0 W/m² | - |
| 1777881016 | 12.78° C | 26% | 1016 hPa | 0 mm | - | 0 W/m² | - |
| 1777880456 | 12.78° C | 26% | 1016 hPa | 0 mm | - | 0 W/m² | - |
* Rain latest hour (hover to see other rain measurements)
** Current wind speed in m/s (hover to see current wind gust speed)